This is the latest recevied weather packets stored in our database for station/object N9BLE. If no packets are shown the sender has not sent any weather packets the latest 10 day(s).
| Time | Temp. | Humidity | Pressure | Rain* | Wind** | Luminosity | Snow |
|---|---|---|---|---|---|---|---|
| 1777514955 | 6.67° C | 77% | 1020.8 hPa | 0 mm | - | 0 W/m² | - |
| 1777514651 | 6.67° C | 76% | 1020.7 hPa | 0 mm | - | 0 W/m² | - |
| 1777514348 | 7.22° C | 75% | 1020.7 hPa | 0 mm | - | 0 W/m² | - |
| 1777514044 | 7.22° C | 74% | 1020.7 hPa | 0 mm | - | 0 W/m² | - |
| 1777513742 | 7.22° C | 74% | 1020.7 hPa | 0 mm | - | 0 W/m² | - |
| 1777513439 | 7.78° C | 75% | 1020.6 hPa | 0 mm | - | 0 W/m² | - |
| 1777513136 | 7.78° C | 75% | 1020.4 hPa | 0 mm | - | 0 W/m² | - |
| 1777512831 | 7.78° C | 75% | 1020.4 hPa | 0 mm | - | 0 W/m² | - |
| 1777511922 | 7.78° C | 73% | 1020.3 hPa | 0 mm | - | 0 W/m² | - |
| 1777511620 | 7.78° C | 71% | 1020 hPa | 0 mm | - | 0 W/m² | - |
| 1777511013 | 8.33° C | 72% | 1020 hPa | 0 mm | - | 0 W/m² | - |
| 1777510406 | 8.89° C | 70% | 1020 hPa | 0 mm | - | 2 W/m² | - |
| 1777509192 | 8.89° C | 71% | 1019.8 hPa | 0 mm | - | 8 W/m² | - |
| 1777506465 | 9.44° C | 68% | 1019.3 hPa | 0 mm | - | 25 W/m² | - |
| 1777505857 | 10° C | 67% | 1019.2 hPa | 0 mm | - | 41 W/m² | - |
| 1777501919 | 10.56° C | 64% | 1018.7 hPa | 0 mm | - | 81 W/m² | - |
| 1777501616 | 10.56° C | 63% | 1018.7 hPa | 0 mm | - | 59 W/m² | - |
| 1777501011 | 11.11° C | 63% | 1018.5 hPa | 0 mm | - | 170 W/m² | - |
| 1777500708 | 11.11° C | 65% | 1018.5 hPa | 0 mm | - | 165 W/m² | - |
| 1777500405 | 10.56° C | 63% | 1018.4 hPa | 0 mm | - | 212 W/m² | - |
| 1777500101 | 10.56° C | 65% | 1018.4 hPa | 0 mm | - | 97 W/m² | - |
| 1777498586 | 10.56° C | 66% | 1018.3 hPa | 0 mm | - | 58 W/m² | - |
| 1777497373 | 12.22° C | 61% | 1018 hPa | 0 mm | - | 135 W/m² | - |
| 1777496159 | 11.11° C | 67% | 1018.1 hPa | 0 mm | - | 156 W/m² | - |
| 1777495855 | 11.67° C | 65% | 1018.1 hPa | 0 mm | - | 198 W/m² | - |
* Rain latest hour (hover to see other rain measurements)
** Current wind speed in m/s (hover to see current wind gust speed)